world map with BVG marked

BVG - Airport

This information may not be accurate or current and is not valid for navigation or flight planning. No warranty of fitness for any purpose is made or implied.

flag of Norway

Donate via PayPal

Additional information is available on the NEW Great Circle Mapper

Location
City:  Berlevåg, Finnmark (Finnmárku), Norway
ICAO / IATA:ENBV / BVG

Details
Type:Airport (Aerodrome, Airfield)
Latitude:70°52'17"N (70.871389)
Longitude:29°02'03"E (29.034167)
Elevation:42 ft (13 m)
Runways:1
Longest:3018 × 98 ft (920 × 30 m)

Time
Timezone:UTC+1 (DST+4)
Local Time:

Weather
METAR:ENBV  181750Z 19010KT 9999 SCT034 M02/M04 Q1031

Related Locations
Nearby:
Farthest:NZWD: 11538 mi / 18569 km
McMurdo Station [Williams Field], Ross Island, AQ

Find:

   beyond  
but within

Other Information
Maps:
Sources:

  


 


Great Circle Mapper   Great Circle Mapper
Great Circle Mapper FAQ   Great Circle Mapper FAQ
  Karl's Home Page
KLS²   KLS² Home
   GC on Facebook
Airlines of the World   Airlines of the World
Donate via PayPal


Copyright © 2004-2018, Karl L. Swartz. All rights reserved.
All trademarks mentioned herein belong to their respective owners.

Please see credits for attribution and copyright information.

Karl Swartz <karl@kls2.com>
  Powered by FreeBSD
Valid HTML 4.01!
Labeled with ICRA
hCard Microformat
Geo Microformat